sensor_id;sensor_type;location;lat;lon;timestamp;P1;durP1;ratioP1;P2;durP2;ratioP2
31966;SDS011;18496;52.042;6.812;2022-11-15T00:01:17;30.27;;;13.85;;
31966;SDS011;18496;52.042;6.812;2022-11-15T00:03:40;30.33;;;13.00;;
31966;SDS011;18496;52.042;6.812;2022-11-15T00:06:03;27.45;;;12.32;;
31966;SDS011;18496;52.042;6.812;2022-11-15T00:08:28;24.60;;;12.48;;
31966;SDS011;18496;52.042;6.812;2022-11-15T00:10:55;26.25;;;12.65;;
31966;SDS011;18496;52.042;6.812;2022-11-15T00:13:21;28.70;;;13.30;;
31966;SDS011;18496;52.042;6.812;2022-11-15T00:15:44;27.50;;;13.90;;
31966;SDS011;18496;52.042;6.812;2022-11-15T00:18:06;24.70;;;12.80;;
31966;SDS011;18496;52.042;6.812;2022-11-15T00:20:35;26.40;;;13.23;;
31966;SDS011;18496;52.042;6.812;2022-11-15T00:22:58;27.65;;;13.45;;
31966;SDS011;18496;52.042;6.812;2022-11-15T00:25:20;27.70;;;12.05;;
31966;SDS011;18496;52.042;6.812;2022-11-15T00:27:42;29.48;;;13.30;;
31966;SDS011;18496;52.042;6.812;2022-11-15T00:30:04;24.67;;;13.02;;
31966;SDS011;18496;52.042;6.812;2022-11-15T00:32:30;25.95;;;13.07;;
31966;SDS011;18496;52.042;6.812;2022-11-15T00:34:53;27.33;;;13.73;;
31966;SDS011;18496;52.042;6.812;2022-11-15T00:37:15;24.75;;;12.32;;
31966;SDS011;18496;52.042;6.812;2022-11-15T00:39:37;26.92;;;12.60;;
31966;SDS011;18496;52.042;6.812;2022-11-15T00:41:59;33.55;;;12.55;;
31966;SDS011;18496;52.042;6.812;2022-11-15T00:44:21;26.60;;;12.40;;
31966;SDS011;18496;52.042;6.812;2022-11-15T00:46:43;27.23;;;12.88;;
31966;SDS011;18496;52.042;6.812;2022-11-15T00:49:05;24.20;;;12.50;;
31966;SDS011;18496;52.042;6.812;2022-11-15T00:51:27;23.60;;;11.60;;
31966;SDS011;18496;52.042;6.812;2022-11-15T00:53:50;26.15;;;11.70;;
31966;SDS011;18496;52.042;6.812;2022-11-15T00:56:12;30.42;;;12.55;;
31966;SDS011;18496;52.042;6.812;2022-11-15T00:58:34;21.88;;;11.77;;
31966;SDS011;18496;52.042;6.812;2022-11-15T01:01:04;25.80;;;12.95;;
31966;SDS011;18496;52.042;6.812;2022-11-15T01:03:35;25.95;;;12.75;;
31966;SDS011;18496;52.042;6.812;2022-11-15T01:06:01;26.55;;;12.80;;
31966;SDS011;18496;52.042;6.812;2022-11-15T01:08:23;21.58;;;11.98;;
31966;SDS011;18496;52.042;6.812;2022-11-15T01:10:46;24.63;;;12.63;;
31966;SDS011;18496;52.042;6.812;2022-11-15T01:13:08;20.30;;;11.27;;
31966;SDS011;18496;52.042;6.812;2022-11-15T01:15:30;27.25;;;12.90;;
31966;SDS011;18496;52.042;6.812;2022-11-15T01:17:52;25.73;;;12.48;;
31966;SDS011;18496;52.042;6.812;2022-11-15T01:20:15;21.73;;;12.40;;
31966;SDS011;18496;52.042;6.812;2022-11-15T01:22:37;22.13;;;11.70;;
31966;SDS011;18496;52.042;6.812;2022-11-15T01:24:59;23.38;;;11.77;;
31966;SDS011;18496;52.042;6.812;2022-11-15T01:27:21;23.92;;;11.73;;
31966;SDS011;18496;52.042;6.812;2022-11-15T01:29:43;24.08;;;12.15;;
31966;SDS011;18496;52.042;6.812;2022-11-15T01:32:05;22.23;;;13.18;;
31966;SDS011;18496;52.042;6.812;2022-11-15T01:34:27;24.83;;;12.88;;
31966;SDS011;18496;52.042;6.812;2022-11-15T01:36:49;23.58;;;12.18;;
31966;SDS011;18496;52.042;6.812;2022-11-15T01:39:11;23.52;;;13.20;;
31966;SDS011;18496;52.042;6.812;2022-11-15T01:41:33;23.20;;;12.68;;
31966;SDS011;18496;52.042;6.812;2022-11-15T01:43:57;25.15;;;12.40;;
31966;SDS011;18496;52.042;6.812;2022-11-15T01:46:46;25.48;;;12.93;;
31966;SDS011;18496;52.042;6.812;2022-11-15T01:49:13;28.95;;;13.18;;
31966;SDS011;18496;52.042;6.812;2022-11-15T01:51:38;27.73;;;12.57;;
31966;SDS011;18496;52.042;6.812;2022-11-15T01:54:02;21.95;;;12.32;;
31966;SDS011;18496;52.042;6.812;2022-11-15T01:56:30;26.58;;;12.82;;
31966;SDS011;18496;52.042;6.812;2022-11-15T01:58:55;29.65;;;12.93;;
31966;SDS011;18496;52.042;6.812;2022-11-15T02:01:20;25.75;;;12.48;;
31966;SDS011;18496;52.042;6.812;2022-11-15T02:03:48;23.20;;;12.93;;
31966;SDS011;18496;52.042;6.812;2022-11-15T02:06:20;24.73;;;12.93;;
31966;SDS011;18496;52.042;6.812;2022-11-15T02:08:44;21.48;;;12.27;;
31966;SDS011;18496;52.042;6.812;2022-11-15T02:11:09;28.13;;;13.80;;
31966;SDS011;18496;52.042;6.812;2022-11-15T02:13:31;26.92;;;12.43;;
31966;SDS011;18496;52.042;6.812;2022-11-15T02:18:52;26.35;;;13.30;;
31966;SDS011;18496;52.042;6.812;2022-11-15T02:21:24;24.13;;;12.32;;
31966;SDS011;18496;52.042;6.812;2022-11-15T02:23:58;23.35;;;12.68;;
31966;SDS011;18496;52.042;6.812;2022-11-15T02:29:14;24.42;;;11.77;;
31966;SDS011;18496;52.042;6.812;2022-11-15T02:34:41;24.02;;;11.98;;
31966;SDS011;18496;52.042;6.812;2022-11-15T02:42:41;19.92;;;11.80;;
31966;SDS011;18496;52.042;6.812;2022-11-15T02:45:29;26.63;;;12.45;;
31966;SDS011;18496;52.042;6.812;2022-11-15T02:47:54;26.77;;;12.85;;
31966;SDS011;18496;52.042;6.812;2022-11-15T02:50:21;23.27;;;11.82;;
31966;SDS011;18496;52.042;6.812;2022-11-15T02:52:46;24.25;;;12.07;;
31966;SDS011;18496;52.042;6.812;2022-11-15T02:55:26;24.85;;;11.07;;
31966;SDS011;18496;52.042;6.812;2022-11-15T02:58:03;23.92;;;11.13;;
31966;SDS011;18496;52.042;6.812;2022-11-15T03:00:50;19.60;;;11.02;;
31966;SDS011;18496;52.042;6.812;2022-11-15T03:06:04;20.30;;;10.82;;
31966;SDS011;18496;52.042;6.812;2022-11-15T03:11:39;18.33;;;10.02;;
31966;SDS011;18496;52.042;6.812;2022-11-15T03:14:17;19.63;;;10.25;;
31966;SDS011;18496;52.042;6.812;2022-11-15T03:17:23;19.83;;;11.10;;
31966;SDS011;18496;52.042;6.812;2022-11-15T03:20:02;20.80;;;10.48;;
31966;SDS011;18496;52.042;6.812;2022-11-15T03:22:27;17.50;;;10.38;;
31966;SDS011;18496;52.042;6.812;2022-11-15T03:24:53;18.92;;;10.05;;
31966;SDS011;18496;52.042;6.812;2022-11-15T03:27:19;20.33;;;10.23;;
31966;SDS011;18496;52.042;6.812;2022-11-15T03:29:46;23.15;;;10.68;;
31966;SDS011;18496;52.042;6.812;2022-11-15T03:32:14;17.33;;;10.00;;
31966;SDS011;18496;52.042;6.812;2022-11-15T03:34:55;21.88;;;10.93;;
31966;SDS011;18496;52.042;6.812;2022-11-15T03:37:44;15.98;;;10.27;;
31966;SDS011;18496;52.042;6.812;2022-11-15T03:40:45;17.00;;;10.07;;
31966;SDS011;18496;52.042;6.812;2022-11-15T03:43:29;20.55;;;10.40;;
31966;SDS011;18496;52.042;6.812;2022-11-15T03:46:07;18.75;;;10.02;;
31966;SDS011;18496;52.042;6.812;2022-11-15T03:48:36;18.85;;;10.02;;
31966;SDS011;18496;52.042;6.812;2022-11-15T03:51:04;23.90;;;10.98;;
31966;SDS011;18496;52.042;6.812;2022-11-15T03:53:27;22.52;;;11.05;;
31966;SDS011;18496;52.042;6.812;2022-11-15T03:55:50;18.70;;;10.32;;
31966;SDS011;18496;52.042;6.812;2022-11-15T03:58:12;20.33;;;10.98;;
31966;SDS011;18496;52.042;6.812;2022-11-15T04:00:34;17.80;;;10.13;;
31966;SDS011;18496;52.042;6.812;2022-11-15T04:02:56;18.40;;;10.90;;
31966;SDS011;18496;52.042;6.812;2022-11-15T04:05:19;21.88;;;10.73;;
31966;SDS011;18496;52.042;6.812;2022-11-15T04:07:41;19.67;;;11.05;;
31966;SDS011;18496;52.042;6.812;2022-11-15T04:10:03;17.58;;;10.30;;
31966;SDS011;18496;52.042;6.812;2022-11-15T04:12:26;19.85;;;10.93;;
31966;SDS011;18496;52.042;6.812;2022-11-15T04:14:54;19.30;;;11.02;;
31966;SDS011;18496;52.042;6.812;2022-11-15T04:17:28;16.55;;;8.95;;
31966;SDS011;18496;52.042;6.812;2022-11-15T04:19:50;19.13;;;10.10;;
31966;SDS011;18496;52.042;6.812;2022-11-15T04:22:31;16.73;;;10.33;;
31966;SDS011;18496;52.042;6.812;2022-11-15T04:25:12;18.08;;;10.82;;
31966;SDS011;18496;52.042;6.812;2022-11-15T04:27:34;24.10;;;11.38;;
31966;SDS011;18496;52.042;6.812;2022-11-15T04:29:56;19.88;;;10.25;;
31966;SDS011;18496;52.042;6.812;2022-11-15T04:32:19;19.45;;;10.90;;
31966;SDS011;18496;52.042;6.812;2022-11-15T04:34:41;18.10;;;10.30;;
31966;SDS011;18496;52.042;6.812;2022-11-15T04:37:03;18.50;;;10.43;;
31966;SDS011;18496;52.042;6.812;2022-11-15T04:39:34;20.00;;;10.63;;
31966;SDS011;18496;52.042;6.812;2022-11-15T04:41:56;18.92;;;10.15;;
31966;SDS011;18496;52.042;6.812;2022-11-15T04:44:18;18.33;;;10.32;;
31966;SDS011;18496;52.042;6.812;2022-11-15T04:46:41;18.33;;;10.85;;
31966;SDS011;18496;52.042;6.812;2022-11-15T04:49:03;18.48;;;9.88;;
31966;SDS011;18496;52.042;6.812;2022-11-15T04:51:25;18.80;;;10.63;;
31966;SDS011;18496;52.042;6.812;2022-11-15T04:53:48;17.85;;;10.35;;
31966;SDS011;18496;52.042;6.812;2022-11-15T04:56:10;19.45;;;9.43;;
31966;SDS011;18496;52.042;6.812;2022-11-15T04:58:32;23.50;;;10.43;;
31966;SDS011;18496;52.042;6.812;2022-11-15T05:00:55;15.45;;;9.93;;
31966;SDS011;18496;52.042;6.812;2022-11-15T05:03:17;19.52;;;10.43;;
31966;SDS011;18496;52.042;6.812;2022-11-15T05:05:58;18.27;;;9.87;;
31966;SDS011;18496;52.042;6.812;2022-11-15T05:08:21;25.90;;;10.20;;
31966;SDS011;18496;52.042;6.812;2022-11-15T05:10:43;19.52;;;10.88;;
31966;SDS011;18496;52.042;6.812;2022-11-15T05:13:05;26.02;;;10.38;;
31966;SDS011;18496;52.042;6.812;2022-11-15T05:15:27;26.92;;;11.05;;
31966;SDS011;18496;52.042;6.812;2022-11-15T05:17:49;20.23;;;11.15;;
31966;SDS011;18496;52.042;6.812;2022-11-15T05:20:11;25.40;;;11.60;;
31966;SDS011;18496;52.042;6.812;2022-11-15T05:22:33;20.88;;;10.20;;
31966;SDS011;18496;52.042;6.812;2022-11-15T05:24:55;21.95;;;11.05;;
31966;SDS011;18496;52.042;6.812;2022-11-15T05:27:17;19.27;;;10.98;;
31966;SDS011;18496;52.042;6.812;2022-11-15T05:29:39;20.27;;;10.82;;
31966;SDS011;18496;52.042;6.812;2022-11-15T05:32:03;20.50;;;12.10;;
31966;SDS011;18496;52.042;6.812;2022-11-15T05:34:26;16.10;;;9.95;;
31966;SDS011;18496;52.042;6.812;2022-11-15T05:36:49;26.92;;;12.23;;
31966;SDS011;18496;52.042;6.812;2022-11-15T05:39:11;19.92;;;11.18;;
31966;SDS011;18496;52.042;6.812;2022-11-15T05:41:40;21.58;;;11.57;;
31966;SDS011;18496;52.042;6.812;2022-11-15T05:44:06;21.25;;;11.70;;
31966;SDS011;18496;52.042;6.812;2022-11-15T05:46:31;27.23;;;12.25;;
31966;SDS011;18496;52.042;6.812;2022-11-15T05:48:55;23.98;;;12.25;;
31966;SDS011;18496;52.042;6.812;2022-11-15T05:51:18;17.88;;;11.27;;
31966;SDS011;18496;52.042;6.812;2022-11-15T05:53:42;25.65;;;12.10;;
31966;SDS011;18496;52.042;6.812;2022-11-15T05:56:05;24.30;;;12.00;;
31966;SDS011;18496;52.042;6.812;2022-11-15T05:58:28;25.88;;;13.32;;
31966;SDS011;18496;52.042;6.812;2022-11-15T06:00:50;23.17;;;12.43;;
31966;SDS011;18496;52.042;6.812;2022-11-15T06:03:12;32.15;;;13.85;;
31966;SDS011;18496;52.042;6.812;2022-11-15T06:05:35;23.23;;;12.77;;
31966;SDS011;18496;52.042;6.812;2022-11-15T06:07:58;25.55;;;12.80;;
31966;SDS011;18496;52.042;6.812;2022-11-15T06:10:21;23.88;;;12.25;;
31966;SDS011;18496;52.042;6.812;2022-11-15T06:12:43;22.00;;;13.07;;
31966;SDS011;18496;52.042;6.812;2022-11-15T06:15:05;24.10;;;12.57;;
31966;SDS011;18496;52.042;6.812;2022-11-15T06:17:27;28.80;;;14.18;;
31966;SDS011;18496;52.042;6.812;2022-11-15T06:19:50;31.75;;;12.75;;
31966;SDS011;18496;52.042;6.812;2022-11-15T06:22:12;24.50;;;12.93;;
31966;SDS011;18496;52.042;6.812;2022-11-15T06:24:34;23.27;;;12.43;;
31966;SDS011;18496;52.042;6.812;2022-11-15T06:26:56;27.25;;;12.68;;
31966;SDS011;18496;52.042;6.812;2022-11-15T06:29:19;21.48;;;13.13;;
31966;SDS011;18496;52.042;6.812;2022-11-15T06:31:42;22.92;;;12.68;;
31966;SDS011;18496;52.042;6.812;2022-11-15T06:34:04;26.67;;;14.68;;
31966;SDS011;18496;52.042;6.812;2022-11-15T06:36:26;35.92;;;15.65;;
31966;SDS011;18496;52.042;6.812;2022-11-15T06:38:48;31.95;;;15.88;;
31966;SDS011;18496;52.042;6.812;2022-11-15T06:41:10;30.45;;;15.07;;
31966;SDS011;18496;52.042;6.812;2022-11-15T06:43:34;34.95;;;15.77;;
31966;SDS011;18496;52.042;6.812;2022-11-15T06:45:58;28.77;;;14.93;;
31966;SDS011;18496;52.042;6.812;2022-11-15T06:48:21;29.50;;;14.73;;
31966;SDS011;18496;52.042;6.812;2022-11-15T06:50:43;31.73;;;14.95;;
31966;SDS011;18496;52.042;6.812;2022-11-15T06:53:14;30.63;;;15.13;;
31966;SDS011;18496;52.042;6.812;2022-11-15T06:55:36;30.65;;;15.73;;
31966;SDS011;18496;52.042;6.812;2022-11-15T06:57:58;31.48;;;16.42;;
31966;SDS011;18496;52.042;6.812;2022-11-15T07:00:20;21.70;;;13.48;;
31966;SDS011;18496;52.042;6.812;2022-11-15T07:02:43;26.35;;;13.57;;
31966;SDS011;18496;52.042;6.812;2022-11-15T07:05:05;27.17;;;14.00;;
31966;SDS011;18496;52.042;6.812;2022-11-15T07:07:28;26.50;;;13.23;;
31966;SDS011;18496;52.042;6.812;2022-11-15T07:09:50;21.08;;;12.95;;
31966;SDS011;18496;52.042;6.812;2022-11-15T07:12:12;23.13;;;13.25;;
31966;SDS011;18496;52.042;6.812;2022-11-15T07:14:34;28.23;;;12.85;;
31966;SDS011;18496;52.042;6.812;2022-11-15T07:16:56;21.73;;;12.25;;
31966;SDS011;18496;52.042;6.812;2022-11-15T07:19:18;22.05;;;11.75;;
31966;SDS011;18496;52.042;6.812;2022-11-15T07:21:40;20.77;;;12.27;;
31966;SDS011;18496;52.042;6.812;2022-11-15T07:24:03;21.63;;;11.38;;
31966;SDS011;18496;52.042;6.812;2022-11-15T07:26:25;17.33;;;10.55;;
31966;SDS011;18496;52.042;6.812;2022-11-15T07:28:47;22.30;;;11.60;;
31966;SDS011;18496;52.042;6.812;2022-11-15T07:31:09;17.77;;;10.50;;
31966;SDS011;18496;52.042;6.812;2022-11-15T07:33:31;16.67;;;10.20;;
31966;SDS011;18496;52.042;6.812;2022-11-15T07:35:54;17.63;;;10.52;;
31966;SDS011;18496;52.042;6.812;2022-11-15T07:38:23;22.15;;;11.07;;
31966;SDS011;18496;52.042;6.812;2022-11-15T07:40:45;17.77;;;10.00;;
31966;SDS011;18496;52.042;6.812;2022-11-15T07:43:08;18.05;;;10.75;;
31966;SDS011;18496;52.042;6.812;2022-11-15T07:45:31;17.52;;;10.05;;
31966;SDS011;18496;52.042;6.812;2022-11-15T07:48:01;18.15;;;10.02;;
31966;SDS011;18496;52.042;6.812;2022-11-15T07:50:24;19.13;;;10.77;;
31966;SDS011;18496;52.042;6.812;2022-11-15T07:52:46;20.80;;;11.48;;
31966;SDS011;18496;52.042;6.812;2022-11-15T07:55:08;19.80;;;11.85;;
31966;SDS011;18496;52.042;6.812;2022-11-15T07:57:31;20.50;;;11.93;;
31966;SDS011;18496;52.042;6.812;2022-11-15T07:59:53;19.70;;;11.25;;
31966;SDS011;18496;52.042;6.812;2022-11-15T08:02:15;20.67;;;10.63;;
31966;SDS011;18496;52.042;6.812;2022-11-15T08:04:39;22.25;;;11.48;;
31966;SDS011;18496;52.042;6.812;2022-11-15T08:07:02;21.73;;;10.75;;
31966;SDS011;18496;52.042;6.812;2022-11-15T08:09:39;25.48;;;11.15;;
31966;SDS011;18496;52.042;6.812;2022-11-15T08:12:55;16.92;;;10.52;;
31966;SDS011;18496;52.042;6.812;2022-11-15T08:18:29;16.98;;;9.98;;
31966;SDS011;18496;52.042;6.812;2022-11-15T08:20:58;19.48;;;9.45;;
31966;SDS011;18496;52.042;6.812;2022-11-15T08:23:27;14.07;;;8.85;;
31966;SDS011;18496;52.042;6.812;2022-11-15T08:25:59;15.38;;;8.90;;
31966;SDS011;18496;52.042;6.812;2022-11-15T08:54:03;11.10;;;6.55;;
31966;SDS011;18496;52.042;6.812;2022-11-15T08:56:25;10.23;;;6.43;;
31966;SDS011;18496;52.042;6.812;2022-11-15T08:59:07;9.45;;;5.88;;
31966;SDS011;18496;52.042;6.812;2022-11-15T09:01:29;11.50;;;6.75;;
31966;SDS011;18496;52.042;6.812;2022-11-15T09:04:04;9.88;;;6.20;;
31966;SDS011;18496;52.042;6.812;2022-11-15T09:06:27;8.00;;;5.10;;
31966;SDS011;18496;52.042;6.812;2022-11-15T09:09:17;9.93;;;6.20;;
31966;SDS011;18496;52.042;6.812;2022-11-15T09:11:54;11.50;;;6.10;;
31966;SDS011;18496;52.042;6.812;2022-11-15T09:14:33;11.25;;;5.93;;
31966;SDS011;18496;52.042;6.812;2022-11-15T09:16:56;10.73;;;5.60;;
31966;SDS011;18496;52.042;6.812;2022-11-15T09:19:18;9.63;;;5.90;;
31966;SDS011;18496;52.042;6.812;2022-11-15T09:21:49;12.55;;;5.50;;
31966;SDS011;18496;52.042;6.812;2022-11-15T09:24:29;11.93;;;5.80;;
31966;SDS011;18496;52.042;6.812;2022-11-15T09:27:15;11.13;;;5.93;;
31966;SDS011;18496;52.042;6.812;2022-11-15T09:29:46;8.65;;;5.43;;
31966;SDS011;18496;52.042;6.812;2022-11-15T09:32:18;10.13;;;5.18;;
31966;SDS011;18496;52.042;6.812;2022-11-15T09:34:52;9.07;;;4.97;;
31966;SDS011;18496;52.042;6.812;2022-11-15T09:37:20;10.90;;;5.18;;
31966;SDS011;18496;52.042;6.812;2022-11-15T09:39:45;9.68;;;4.75;;
31966;SDS011;18496;52.042;6.812;2022-11-15T09:42:27;9.27;;;3.97;;
31966;SDS011;18496;52.042;6.812;2022-11-15T09:51:17;10.98;;;3.85;;
31966;SDS011;18496;52.042;6.812;2022-11-15T10:00:22;9.00;;;3.53;;
31966;SDS011;18496;52.042;6.812;2022-11-15T10:05:37;4.70;;;3.13;;
31966;SDS011;18496;52.042;6.812;2022-11-15T10:11:16;8.57;;;3.47;;
31966;SDS011;18496;52.042;6.812;2022-11-15T10:20:20;8.38;;;3.28;;
31966;SDS011;18496;52.042;6.812;2022-11-15T10:30:36;4.05;;;2.38;;
31966;SDS011;18496;52.042;6.812;2022-11-15T10:36:15;3.83;;;2.22;;
31966;SDS011;18496;52.042;6.812;2022-11-15T10:52:16;6.25;;;1.85;;
31966;SDS011;18496;52.042;6.812;2022-11-15T10:57:33;2.80;;;1.70;;
31966;SDS011;18496;52.042;6.812;2022-11-15T11:03:37;1.90;;;1.30;;
31966;SDS011;18496;52.042;6.812;2022-11-15T11:06:27;4.10;;;2.03;;
31966;SDS011;18496;52.042;6.812;2022-11-15T11:08:39;2.45;;;1.58;;
31966;SDS011;18496;52.042;6.812;2022-11-15T11:10:53;2.38;;;1.40;;
31966;SDS011;18496;52.042;6.812;2022-11-15T11:26:15;5.85;;;2.30;;
31966;SDS011;18496;52.042;6.812;2022-11-15T11:35:11;7.80;;;3.80;;
31966;SDS011;18496;52.042;6.812;2022-11-15T11:37:47;10.68;;;4.22;;
31966;SDS011;18496;52.042;6.812;2022-11-15T11:45:25;6.72;;;5.07;;
31966;SDS011;18496;52.042;6.812;2022-11-15T11:50:22;12.15;;;5.90;;
31966;SDS011;18496;52.042;6.812;2022-11-15T11:56:32;11.43;;;5.18;;
31966;SDS011;18496;52.042;6.812;2022-11-15T12:07:52;10.93;;;4.75;;
31966;SDS011;18496;52.042;6.812;2022-11-15T12:10:22;12.20;;;4.78;;
31966;SDS011;18496;52.042;6.812;2022-11-15T12:12:54;9.40;;;4.10;;
31966;SDS011;18496;52.042;6.812;2022-11-15T12:15:39;7.13;;;4.07;;
31966;SDS011;18496;52.042;6.812;2022-11-15T12:26:18;8.55;;;4.13;;
31966;SDS011;18496;52.042;6.812;2022-11-15T12:29:03;11.98;;;3.50;;
31966;SDS011;18496;52.042;6.812;2022-11-15T12:50:10;5.90;;;2.35;;
31966;SDS011;18496;52.042;6.812;2022-11-15T12:55:39;8.55;;;2.45;;
31966;SDS011;18496;52.042;6.812;2022-11-15T13:08:58;3.42;;;2.20;;
31966;SDS011;18496;52.042;6.812;2022-11-15T13:20:33;4.60;;;1.95;;
31966;SDS011;18496;52.042;6.812;2022-11-15T13:23:09;5.97;;;1.65;;
31966;SDS011;18496;52.042;6.812;2022-11-15T13:26:10;3.25;;;1.83;;
31966;SDS011;18496;52.042;6.812;2022-11-15T13:30:58;6.45;;;1.90;;
31966;SDS011;18496;52.042;6.812;2022-11-15T13:33:24;4.10;;;1.58;;
31966;SDS011;18496;52.042;6.812;2022-11-15T13:36:06;3.60;;;1.55;;
31966;SDS011;18496;52.042;6.812;2022-11-15T13:41:27;4.90;;;1.40;;
31966;SDS011;18496;52.042;6.812;2022-11-15T13:43:47;5.32;;;1.13;;
31966;SDS011;18496;52.042;6.812;2022-11-15T13:46:31;8.60;;;1.50;;
31966;SDS011;18496;52.042;6.812;2022-11-15T13:51:18;2.00;;;1.10;;
31966;SDS011;18496;52.042;6.812;2022-11-15T13:53:38;6.47;;;1.15;;
31966;SDS011;18496;52.042;6.812;2022-11-15T13:56:15;1.67;;;1.02;;
31966;SDS011;18496;52.042;6.812;2022-11-15T13:58:31;2.42;;;1.08;;
31966;SDS011;18496;52.042;6.812;2022-11-15T14:35:14;4.50;;;1.23;;
31966;SDS011;18496;52.042;6.812;2022-11-15T14:38:29;2.17;;;1.17;;
31966;SDS011;18496;52.042;6.812;2022-11-15T14:40:47;5.13;;;1.38;;
31966;SDS011;18496;52.042;6.812;2022-11-15T14:43:23;2.65;;;1.25;;
31966;SDS011;18496;52.042;6.812;2022-11-15T14:45:56;4.22;;;1.33;;
31966;SDS011;18496;52.042;6.812;2022-11-15T14:48:02;4.25;;;1.25;;
31966;SDS011;18496;52.042;6.812;2022-11-15T14:50:06;3.25;;;1.30;;
31966;SDS011;18496;52.042;6.812;2022-11-15T14:52:28;4.93;;;1.15;;
31966;SDS011;18496;52.042;6.812;2022-11-15T14:54:38;3.08;;;1.08;;
31966;SDS011;18496;52.042;6.812;2022-11-15T14:56:47;2.35;;;1.10;;
31966;SDS011;18496;52.042;6.812;2022-11-15T14:58:51;5.22;;;1.38;;
31966;SDS011;18496;52.042;6.812;2022-11-15T15:01:25;3.53;;;1.17;;
31966;SDS011;18496;52.042;6.812;2022-11-15T15:03:38;3.85;;;1.10;;
31966;SDS011;18496;52.042;6.812;2022-11-15T15:05:49;7.65;;;1.58;;
31966;SDS011;18496;52.042;6.812;2022-11-15T15:08:08;3.35;;;1.33;;
31966;SDS011;18496;52.042;6.812;2022-11-15T15:10:40;1.77;;;0.90;;
31966;SDS011;18496;52.042;6.812;2022-11-15T15:12:56;2.47;;;1.25;;
31966;SDS011;18496;52.042;6.812;2022-11-15T15:15:34;10.10;;;1.95;;
31966;SDS011;18496;52.042;6.812;2022-11-15T15:17:54;9.27;;;1.80;;
31966;SDS011;18496;52.042;6.812;2022-11-15T15:19:58;8.00;;;1.30;;
31966;SDS011;18496;52.042;6.812;2022-11-15T15:22:02;8.85;;;1.88;;
31966;SDS011;18496;52.042;6.812;2022-11-15T15:24:15;5.82;;;2.05;;
31966;SDS011;18496;52.042;6.812;2022-11-15T15:26:27;6.47;;;2.58;;
31966;SDS011;18496;52.042;6.812;2022-11-15T15:28:33;4.93;;;2.03;;
31966;SDS011;18496;52.042;6.812;2022-11-15T15:30:41;12.30;;;2.10;;
31966;SDS011;18496;52.042;6.812;2022-11-15T15:32:45;5.10;;;1.95;;
31966;SDS011;18496;52.042;6.812;2022-11-15T15:34:48;4.90;;;1.60;;
31966;SDS011;18496;52.042;6.812;2022-11-15T15:39:14;5.63;;;1.40;;
31966;SDS011;18496;52.042;6.812;2022-11-15T15:41:18;9.02;;;1.63;;
31966;SDS011;18496;52.042;6.812;2022-11-15T15:43:22;7.00;;;1.73;;
31966;SDS011;18496;52.042;6.812;2022-11-15T15:45:26;2.35;;;1.15;;
31966;SDS011;18496;52.042;6.812;2022-11-15T15:47:30;2.03;;;1.55;;
31966;SDS011;18496;52.042;6.812;2022-11-15T15:49:34;3.67;;;1.75;;
31966;SDS011;18496;52.042;6.812;2022-11-15T15:54:54;4.88;;;1.90;;
31966;SDS011;18496;52.042;6.812;2022-11-15T15:56:59;3.25;;;1.67;;
31966;SDS011;18496;52.042;6.812;2022-11-15T15:59:02;5.20;;;1.77;;
31966;SDS011;18496;52.042;6.812;2022-11-15T16:01:15;3.78;;;1.77;;
31966;SDS011;18496;52.042;6.812;2022-11-15T16:03:19;15.93;;;2.53;;
31966;SDS011;18496;52.042;6.812;2022-11-15T16:05:25;5.70;;;2.60;;
31966;SDS011;18496;52.042;6.812;2022-11-15T16:07:33;6.60;;;2.33;;
31966;SDS011;18496;52.042;6.812;2022-11-15T16:09:39;4.07;;;2.22;;
31966;SDS011;18496;52.042;6.812;2022-11-15T16:12:06;6.28;;;2.67;;
31966;SDS011;18496;52.042;6.812;2022-11-15T16:14:12;7.43;;;2.95;;
31966;SDS011;18496;52.042;6.812;2022-11-15T16:16:23;7.50;;;3.03;;
31966;SDS011;18496;52.042;6.812;2022-11-15T16:18:29;4.25;;;1.83;;
31966;SDS011;18496;52.042;6.812;2022-11-15T16:20:39;6.40;;;2.45;;
31966;SDS011;18496;52.042;6.812;2022-11-15T16:22:48;7.18;;;2.58;;
31966;SDS011;18496;52.042;6.812;2022-11-15T16:25:01;5.13;;;2.10;;
31966;SDS011;18496;52.042;6.812;2022-11-15T16:27:34;6.95;;;1.90;;
31966;SDS011;18496;52.042;6.812;2022-11-15T16:32:55;5.82;;;2.00;;
31966;SDS011;18496;52.042;6.812;2022-11-15T16:35:10;11.40;;;4.35;;
31966;SDS011;18496;52.042;6.812;2022-11-15T16:37:34;5.28;;;2.58;;
31966;SDS011;18496;52.042;6.812;2022-11-15T16:39:48;8.45;;;2.60;;
31966;SDS011;18496;52.042;6.812;2022-11-15T16:42:01;8.00;;;3.22;;
31966;SDS011;18496;52.042;6.812;2022-11-15T16:44:28;8.70;;;2.72;;
31966;SDS011;18496;52.042;6.812;2022-11-15T16:46:32;5.30;;;2.55;;
31966;SDS011;18496;52.042;6.812;2022-11-15T16:48:44;5.80;;;2.90;;
31966;SDS011;18496;52.042;6.812;2022-11-15T16:53:43;7.53;;;2.60;;
31966;SDS011;18496;52.042;6.812;2022-11-15T17:02:00;4.18;;;2.42;;
31966;SDS011;18496;52.042;6.812;2022-11-15T17:04:22;6.15;;;2.63;;
31966;SDS011;18496;52.042;6.812;2022-11-15T17:06:51;8.18;;;2.88;;
31966;SDS011;18496;52.042;6.812;2022-11-15T17:09:00;6.50;;;2.30;;
31966;SDS011;18496;52.042;6.812;2022-11-15T17:11:08;5.72;;;2.78;;
31966;SDS011;18496;52.042;6.812;2022-11-15T17:13:24;9.23;;;3.40;;
31966;SDS011;18496;52.042;6.812;2022-11-15T17:19:17;7.65;;;3.20;;
31966;SDS011;18496;52.042;6.812;2022-11-15T17:21:43;11.60;;;3.03;;
31966;SDS011;18496;52.042;6.812;2022-11-15T17:23:56;4.75;;;2.80;;
31966;SDS011;18496;52.042;6.812;2022-11-15T17:26:23;6.10;;;2.40;;
31966;SDS011;18496;52.042;6.812;2022-11-15T17:28:42;7.28;;;2.55;;
31966;SDS011;18496;52.042;6.812;2022-11-15T17:31:13;8.50;;;3.38;;
31966;SDS011;18496;52.042;6.812;2022-11-15T17:33:20;6.18;;;3.00;;
31966;SDS011;18496;52.042;6.812;2022-11-15T17:35:24;3.65;;;2.80;;
31966;SDS011;18496;52.042;6.812;2022-11-15T17:37:30;8.25;;;3.58;;
31966;SDS011;18496;52.042;6.812;2022-11-15T17:39:42;8.88;;;2.95;;
31966;SDS011;18496;52.042;6.812;2022-11-15T17:41:49;9.27;;;3.20;;
31966;SDS011;18496;52.042;6.812;2022-11-15T17:46:53;4.88;;;3.08;;
31966;SDS011;18496;52.042;6.812;2022-11-15T17:49:07;10.18;;;2.83;;
31966;SDS011;18496;52.042;6.812;2022-11-15T17:51:19;7.45;;;4.43;;
31966;SDS011;18496;52.042;6.812;2022-11-15T17:53:56;8.43;;;3.22;;
31966;SDS011;18496;52.042;6.812;2022-11-15T17:56:46;6.47;;;3.00;;
31966;SDS011;18496;52.042;6.812;2022-11-15T18:05:01;5.93;;;3.38;;
31966;SDS011;18496;52.042;6.812;2022-11-15T18:07:15;6.03;;;3.15;;
31966;SDS011;18496;52.042;6.812;2022-11-15T18:09:32;5.85;;;3.38;;
31966;SDS011;18496;52.042;6.812;2022-11-15T18:11:53;5.22;;;2.97;;
31966;SDS011;18496;52.042;6.812;2022-11-15T18:14:38;5.10;;;2.70;;
31966;SDS011;18496;52.042;6.812;2022-11-15T18:16:42;8.30;;;3.25;;
31966;SDS011;18496;52.042;6.812;2022-11-15T18:18:50;8.55;;;2.85;;
31966;SDS011;18496;52.042;6.812;2022-11-15T18:21:01;7.20;;;3.35;;
31966;SDS011;18496;52.042;6.812;2022-11-15T18:23:58;9.82;;;3.63;;
31966;SDS011;18496;52.042;6.812;2022-11-15T18:26:02;9.88;;;3.35;;
31966;SDS011;18496;52.042;6.812;2022-11-15T18:28:09;7.38;;;3.88;;
31966;SDS011;18496;52.042;6.812;2022-11-15T18:30:16;7.88;;;3.42;;
31966;SDS011;18496;52.042;6.812;2022-11-15T18:32:20;7.05;;;3.80;;
31966;SDS011;18496;52.042;6.812;2022-11-15T18:34:24;5.15;;;3.20;;
31966;SDS011;18496;52.042;6.812;2022-11-15T18:36:33;12.20;;;3.33;;
31966;SDS011;18496;52.042;6.812;2022-11-15T18:38:38;7.35;;;3.30;;